createdAt,value
2022-10-16T00:00:49.400Z,12.13
2022-10-16T00:03:16.085Z,11.87
2022-10-16T00:05:44.157Z,11.40
2022-10-16T00:08:12.634Z,11.40
2022-10-16T00:10:40.007Z,10.93
2022-10-16T00:13:07.253Z,11.37
2022-10-16T00:15:37.321Z,11.67
2022-10-16T00:18:05.142Z,11.13
2022-10-16T00:20:35.172Z,10.87
2022-10-16T00:23:01.861Z,11.00
2022-10-16T00:25:28.552Z,10.80
2022-10-16T00:27:55.336Z,11.03
2022-10-16T00:30:22.040Z,11.23
2022-10-16T00:32:48.867Z,10.93
2022-10-16T00:35:15.596Z,10.77
2022-10-16T00:37:42.277Z,10.43
2022-10-16T00:40:09.407Z,11.07
2022-10-16T00:42:36.081Z,10.70
2022-10-16T00:45:03.572Z,10.03
2022-10-16T00:47:45.949Z,10.20
2022-10-16T00:50:21.757Z,9.60
2022-10-16T00:52:50.784Z,10.67
2022-10-16T00:55:18.198Z,9.80
2022-10-16T00:57:46.169Z,10.20
2022-10-16T01:00:20.797Z,9.87
2022-10-16T01:03:01.833Z,10.27
2022-10-16T01:05:54.616Z,10.03
2022-10-16T01:08:49.801Z,9.87
2022-10-16T01:11:44.821Z,9.80
2022-10-16T01:14:23.243Z,9.73
2022-10-16T01:17:14.115Z,9.57
2022-10-16T01:20:02.485Z,9.50
2022-10-16T01:22:52.420Z,10.10
2022-10-16T01:25:50.879Z,9.80
2022-10-16T01:28:20.012Z,9.00
2022-10-16T01:30:48.414Z,9.00
2022-10-16T01:33:21.328Z,9.80
2022-10-16T01:36:07.227Z,9.17
2022-10-16T01:38:39.929Z,10.27
2022-10-16T01:41:22.242Z,9.03
2022-10-16T01:44:07.247Z,9.87
2022-10-16T01:46:36.717Z,9.33
2022-10-16T01:49:04.904Z,8.23
2022-10-16T01:51:33.230Z,8.70
2022-10-16T01:54:02.500Z,8.67
2022-10-16T01:56:30.230Z,9.20
2022-10-16T01:59:07.082Z,9.03
2022-10-16T02:01:37.591Z,8.80
2022-10-16T02:04:18.219Z,9.10
2022-10-16T02:06:45.082Z,8.53
2022-10-16T02:09:12.023Z,9.60
2022-10-16T02:11:38.772Z,8.60
2022-10-16T02:14:07.225Z,8.33
2022-10-16T02:16:55.454Z,9.17
2022-10-16T02:19:23.339Z,8.63
2022-10-16T02:21:57.216Z,9.83
2022-10-16T02:24:51.331Z,8.87
2022-10-16T02:27:32.936Z,8.37
2022-10-16T02:30:08.745Z,8.43
2022-10-16T02:32:38.023Z,8.37
2022-10-16T02:35:06.341Z,8.07
2022-10-16T02:37:34.275Z,8.87
2022-10-16T02:40:02.209Z,8.97
2022-10-16T02:42:33.683Z,8.10
2022-10-16T02:45:00.705Z,7.77
2022-10-16T02:47:27.363Z,9.07
2022-10-16T02:49:54.737Z,7.77
2022-10-16T02:52:21.392Z,7.53
2022-10-16T02:54:48.067Z,8.43
2022-10-16T02:57:14.840Z,7.30
2022-10-16T02:59:41.548Z,7.57
2022-10-16T03:02:08.379Z,7.50
2022-10-16T03:04:35.047Z,7.80
2022-10-16T03:07:01.799Z,7.00
2022-10-16T03:09:28.452Z,6.97
2022-10-16T03:11:55.199Z,8.90
2022-10-16T03:14:21.997Z,8.37
2022-10-16T03:16:48.720Z,8.10
2022-10-16T03:19:17.424Z,7.57
2022-10-16T03:21:44.409Z,7.20
2022-10-16T03:24:11.342Z,7.67
2022-10-16T03:26:38.159Z,8.00
2022-10-16T03:29:05.140Z,7.60
2022-10-16T03:31:31.956Z,6.90
2022-10-16T03:33:58.607Z,7.47
2022-10-16T03:36:25.347Z,7.23
2022-10-16T03:38:52.083Z,6.70
2022-10-16T03:41:19.024Z,7.50
2022-10-16T03:43:45.674Z,7.20
2022-10-16T03:46:12.568Z,7.00
2022-10-16T03:48:40.832Z,7.10
2022-10-16T03:51:07.517Z,7.80
2022-10-16T03:53:34.194Z,7.83
2022-10-16T03:56:01.055Z,7.20
2022-10-16T03:58:27.780Z,7.40
2022-10-16T04:00:55.633Z,7.07
2022-10-16T04:03:22.461Z,8.17
2022-10-16T04:05:49.253Z,6.70
2022-10-16T04:08:15.992Z,9.83
2022-10-16T04:10:45.513Z,7.00
2022-10-16T04:13:13.088Z,7.60
2022-10-16T04:15:40.194Z,8.43
2022-10-16T04:18:07.558Z,7.00
2022-10-16T04:20:35.167Z,6.80
2022-10-16T04:23:01.978Z,6.53
2022-10-16T04:25:28.643Z,6.90
2022-10-16T04:27:56.228Z,7.20
2022-10-16T04:30:23.064Z,8.10
2022-10-16T04:32:51.082Z,6.40
2022-10-16T04:35:19.142Z,6.50
2022-10-16T04:37:46.228Z,6.53
2022-10-16T04:40:13.437Z,6.97
2022-10-16T04:42:40.811Z,7.03
2022-10-16T04:45:11.959Z,6.97
2022-10-16T04:47:41.646Z,6.00
2022-10-16T04:50:09.249Z,6.87
2022-10-16T04:55:08.044Z,5.57
2022-10-16T04:57:34.787Z,5.50
2022-10-16T05:00:01.820Z,6.07
2022-10-16T05:02:28.767Z,5.80
2022-10-16T05:04:55.525Z,5.90
2022-10-16T05:07:22.246Z,6.70
2022-10-16T05:09:49.089Z,6.20
2022-10-16T05:12:15.892Z,6.20
2022-10-16T05:14:42.558Z,6.30
2022-10-16T05:17:09.227Z,6.20
2022-10-16T05:19:35.950Z,5.30
2022-10-16T05:22:02.640Z,5.30
2022-10-16T05:24:29.627Z,5.67
2022-10-16T05:26:56.574Z,6.00
2022-10-16T05:29:23.349Z,6.40
2022-10-16T05:31:53.968Z,5.50
2022-10-16T05:34:21.640Z,5.27
2022-10-16T05:36:48.369Z,5.93
2022-10-16T05:39:16.622Z,5.70
2022-10-16T05:41:44.395Z,5.90
2022-10-16T05:44:11.258Z,5.83
2022-10-16T05:46:38.098Z,5.00
2022-10-16T05:49:05.124Z,6.10
2022-10-16T05:51:31.792Z,6.40
2022-10-16T05:53:58.461Z,5.33
2022-10-16T05:56:25.344Z,5.00
2022-10-16T05:58:52.018Z,5.40
2022-10-16T06:01:20.242Z,5.57
2022-10-16T06:03:47.418Z,5.60
2022-10-16T06:06:20.262Z,5.93
2022-10-16T06:08:48.106Z,5.13
2022-10-16T06:11:17.286Z,4.80
2022-10-16T06:13:44.077Z,5.93
2022-10-16T06:16:11.865Z,5.57
2022-10-16T06:18:38.907Z,5.10
2022-10-16T06:21:17.731Z,5.77
2022-10-16T06:26:15.467Z,5.50
2022-10-16T06:28:42.545Z,5.93
2022-10-16T06:31:11.283Z,6.07
2022-10-16T06:33:39.110Z,4.80
2022-10-16T06:36:11.776Z,5.40
2022-10-16T06:38:38.958Z,5.53
2022-10-16T06:41:07.188Z,5.20
2022-10-16T06:43:36.256Z,5.10
2022-10-16T06:46:04.338Z,5.30
2022-10-16T06:48:31.418Z,5.43
2022-10-16T06:53:54.544Z,5.40
2022-10-16T06:56:28.609Z,5.50
2022-10-16T06:58:55.928Z,5.87
2022-10-16T07:01:24.517Z,5.60
2022-10-16T07:03:51.658Z,5.73
2022-10-16T07:06:20.454Z,5.23
2022-10-16T07:08:48.370Z,6.20
2022-10-16T07:11:17.917Z,18.57
2022-10-16T07:13:50.755Z,14.00
2022-10-16T07:16:28.066Z,14.97
2022-10-16T07:19:00.728Z,18.50
2022-10-16T07:21:30.718Z,14.97
2022-10-16T07:24:00.124Z,32.27
2022-10-16T07:26:28.771Z,48.90
2022-10-16T07:28:55.959Z,47.63
2022-10-16T07:31:23.561Z,51.00
2022-10-16T07:33:50.753Z,33.50
2022-10-16T07:36:19.331Z,24.03
2022-10-16T07:38:46.576Z,19.13
2022-10-16T07:41:15.616Z,19.00
2022-10-16T07:43:50.361Z,19.17
2022-10-16T07:46:17.866Z,18.03
2022-10-16T07:48:47.959Z,19.73
2022-10-16T07:51:20.794Z,19.93
2022-10-16T07:53:48.506Z,21.40
2022-10-16T07:56:16.584Z,20.07
2022-10-16T07:58:43.820Z,18.23
2022-10-16T08:01:14.015Z,18.10
2022-10-16T08:03:43.943Z,19.20
2022-10-16T08:06:10.602Z,18.30
2022-10-16T08:08:37.272Z,18.80
2022-10-16T08:11:06.682Z,16.50
2022-10-16T08:13:33.537Z,16.50
2022-10-16T08:16:00.590Z,15.50
2022-10-16T08:18:27.420Z,16.10
2022-10-16T08:21:01.219Z,16.70
2022-10-16T08:23:29.036Z,16.70
2022-10-16T08:25:56.659Z,15.30
2022-10-16T08:28:24.050Z,15.20
2022-10-16T08:30:51.190Z,15.17
2022-10-16T08:33:18.056Z,14.90
2022-10-16T08:35:52.172Z,14.80
2022-10-16T08:38:18.864Z,14.20
2022-10-16T08:40:47.458Z,14.37
2022-10-16T08:43:34.609Z,13.23
2022-10-16T08:46:29.427Z,13.00
2022-10-16T08:48:59.992Z,13.63
2022-10-16T08:51:32.961Z,14.37
2022-10-16T08:54:05.256Z,13.00
2022-10-16T08:56:32.144Z,13.63
2022-10-16T08:59:02.301Z,14.00
2022-10-16T09:01:42.885Z,12.60
2022-10-16T09:04:28.136Z,14.70
2022-10-16T09:07:20.664Z,16.30
2022-10-16T09:10:18.352Z,18.23
2022-10-16T09:12:59.516Z,18.10
2022-10-16T09:15:32.714Z,17.33
2022-10-16T09:18:05.021Z,19.23
2022-10-16T09:20:31.666Z,19.70
2022-10-16T09:23:23.358Z,20.60
2022-10-16T09:25:51.334Z,20.47
2022-10-16T09:28:19.571Z,20.40
2022-10-16T09:30:47.284Z,19.00
2022-10-16T09:33:14.691Z,20.03
2022-10-16T09:35:48.282Z,21.67
2022-10-16T09:38:31.992Z,22.17
2022-10-16T09:41:03.074Z,19.90
2022-10-16T09:43:37.984Z,16.73
2022-10-16T09:46:07.566Z,15.57
2022-10-16T09:48:49.981Z,15.60
2022-10-16T09:51:23.830Z,15.77
2022-10-16T09:53:55.284Z,14.47
2022-10-16T09:56:31.651Z,14.70
2022-10-16T09:59:01.541Z,14.57
2022-10-16T10:01:36.167Z,14.53
2022-10-16T10:04:03.958Z,14.50
2022-10-16T10:06:55.397Z,14.20
2022-10-16T10:09:32.653Z,14.03
2022-10-16T10:12:04.356Z,12.90
2022-10-16T10:14:39.858Z,12.67
2022-10-16T10:17:06.490Z,12.63
2022-10-16T10:19:45.132Z,12.07
2022-10-16T10:22:26.406Z,12.67
2022-10-16T10:25:12.099Z,10.90
2022-10-16T10:28:06.371Z,11.97
2022-10-16T10:30:52.062Z,11.73
2022-10-16T10:33:36.913Z,11.33
2022-10-16T10:36:24.138Z,11.23
2022-10-16T10:39:05.100Z,10.50
2022-10-16T10:41:46.937Z,10.63
2022-10-16T10:44:47.475Z,10.70
2022-10-16T10:47:29.738Z,12.20
2022-10-16T10:50:35.243Z,11.70
2022-10-16T10:53:26.066Z,11.03
2022-10-16T10:56:00.944Z,9.87
2022-10-16T10:58:32.306Z,10.40
2022-10-16T11:01:42.869Z,11.53
2022-10-16T11:04:20.110Z,10.00
2022-10-16T11:07:06.308Z,10.50
2022-10-16T11:09:40.925Z,11.00
2022-10-16T11:12:22.810Z,10.63
2022-10-16T11:15:11.506Z,11.60
2022-10-16T11:17:45.988Z,10.17
2022-10-16T11:20:23.756Z,10.70
2022-10-16T11:22:58.854Z,11.10
2022-10-16T11:25:29.524Z,10.60
2022-10-16T11:27:59.069Z,9.97
2022-10-16T11:30:28.676Z,11.63
2022-10-16T11:33:24.409Z,18.87
2022-10-16T11:35:56.340Z,22.80
2022-10-16T11:38:44.173Z,28.15
2022-10-16T11:41:10.828Z,27.37
2022-10-16T11:43:43.675Z,27.03
2022-10-16T11:46:23.501Z,28.37
2022-10-16T11:49:17.331Z,25.17
2022-10-16T11:51:51.567Z,29.17
2022-10-16T11:54:40.540Z,27.73
2022-10-16T11:57:17.307Z,28.60
2022-10-16T12:00:02.515Z,25.50
2022-10-16T12:03:06.550Z,26.43
2022-10-16T12:05:54.101Z,28.23
2022-10-16T12:08:21.137Z,28.30
2022-10-16T12:10:49.142Z,28.00
2022-10-16T12:13:30.708Z,29.40
2022-10-16T12:16:12.773Z,30.50
2022-10-16T12:18:44.856Z,30.90
2022-10-16T12:21:16.472Z,30.50
2022-10-16T12:23:53.462Z,29.60
2022-10-16T12:26:29.029Z,31.27
2022-10-16T12:28:57.106Z,31.77
2022-10-16T12:31:25.162Z,30.20
2022-10-16T12:34:02.097Z,32.83
2022-10-16T12:36:35.291Z,31.80
2022-10-16T12:39:03.368Z,29.97
2022-10-16T12:41:36.189Z,30.37
2022-10-16T12:44:03.892Z,31.93
2022-10-16T12:46:30.518Z,30.43
2022-10-16T12:49:29.387Z,30.73
2022-10-16T12:51:57.030Z,31.80
2022-10-16T12:54:31.406Z,31.40
2022-10-16T12:57:28.759Z,32.23
2022-10-16T13:00:11.278Z,31.87
2022-10-16T13:03:06.768Z,31.37
2022-10-16T13:05:41.445Z,33.63
2022-10-16T13:08:53.880Z,32.43
2022-10-16T13:11:39.028Z,31.30
2022-10-16T13:14:26.772Z,34.83
2022-10-16T13:17:05.051Z,32.47
2022-10-16T13:19:57.022Z,32.83
2022-10-16T13:23:00.926Z,31.33
2022-10-16T13:25:36.264Z,34.03
2022-10-16T13:28:08.802Z,34.50
2022-10-16T13:30:42.872Z,34.33
2022-10-16T13:33:39.476Z,33.70
2022-10-16T13:36:07.414Z,32.80
2022-10-16T13:38:36.835Z,34.07
2022-10-16T13:41:03.557Z,33.20
2022-10-16T13:43:38.830Z,34.77
2022-10-16T13:46:15.772Z,34.87
2022-10-16T13:48:43.021Z,36.33
2022-10-16T13:51:19.749Z,35.60
2022-10-16T13:53:47.478Z,34.83
2022-10-16T13:56:16.652Z,33.30
2022-10-16T13:58:44.011Z,34.47
2022-10-16T14:01:32.465Z,35.10
2022-10-16T14:04:06.336Z,33.10
2022-10-16T14:06:34.149Z,34.77
2022-10-16T14:09:31.278Z,35.33
2022-10-16T14:12:10.831Z,35.33
2022-10-16T14:14:46.003Z,34.47
2022-10-16T14:17:32.026Z,33.20
2022-10-16T14:20:04.151Z,35.17
2022-10-16T14:22:41.585Z,36.17
2022-10-16T14:25:20.447Z,33.23
2022-10-16T14:28:03.567Z,36.07
2022-10-16T14:30:31.706Z,33.57
2022-10-16T14:33:02.608Z,34.93
2022-10-16T14:35:35.940Z,34.07
2022-10-16T14:38:04.569Z,35.00
2022-10-16T14:40:33.764Z,34.63
2022-10-16T14:43:02.656Z,33.33
2022-10-16T14:45:32.186Z,33.40
2022-10-16T14:48:01.477Z,34.83
2022-10-16T14:50:28.590Z,34.80
2022-10-16T14:52:55.966Z,31.37
2022-10-16T14:57:58.280Z,35.77
2022-10-16T15:00:27.450Z,33.77
2022-10-16T15:02:54.239Z,35.70
2022-10-16T15:05:27.144Z,33.23
2022-10-16T15:07:55.888Z,34.90
2022-10-16T15:10:25.372Z,33.50
2022-10-16T15:12:52.354Z,32.63
2022-10-16T15:15:25.104Z,32.73
2022-10-16T15:17:54.423Z,33.40
2022-10-16T15:20:21.561Z,32.20
2022-10-16T15:22:48.418Z,33.47
2022-10-16T15:25:33.707Z,32.67
2022-10-16T15:28:02.378Z,33.27
2022-10-16T15:30:29.633Z,31.00
2022-10-16T15:32:56.513Z,30.83
2022-10-16T15:35:23.660Z,31.23
2022-10-16T15:37:50.630Z,30.40
2022-10-16T15:40:19.495Z,32.00
2022-10-16T15:42:46.474Z,31.30
2022-10-16T15:45:14.106Z,29.40
2022-10-16T15:47:45.110Z,30.00
2022-10-16T15:50:14.584Z,29.57
2022-10-16T15:52:42.073Z,30.97
2022-10-16T15:55:10.277Z,30.60
2022-10-16T15:57:42.313Z,30.63
2022-10-16T16:00:11.948Z,31.23
2022-10-16T16:02:39.009Z,29.93
2022-10-16T16:05:07.447Z,29.40
2022-10-16T16:07:35.484Z,28.80
2022-10-16T16:10:03.641Z,30.70
2022-10-16T16:12:30.451Z,30.33
2022-10-16T16:14:58.891Z,30.93
2022-10-16T16:17:28.770Z,29.40
2022-10-16T16:19:55.429Z,30.17
2022-10-16T16:22:22.089Z,31.83
2022-10-16T16:24:48.751Z,27.80
2022-10-16T16:27:15.726Z,30.90
2022-10-16T16:29:42.878Z,28.93
2022-10-16T16:32:09.592Z,31.20
2022-10-16T16:34:36.279Z,31.03
2022-10-16T16:37:03.016Z,30.03
2022-10-16T16:39:29.929Z,31.10
2022-10-16T16:41:59.287Z,30.03
2022-10-16T16:44:26.320Z,30.20
2022-10-16T16:46:53.749Z,30.00
2022-10-16T16:49:20.462Z,29.20
2022-10-16T16:51:47.210Z,30.73
2022-10-16T16:54:14.810Z,30.77
2022-10-16T16:56:44.043Z,30.60
2022-10-16T16:59:20.621Z,32.50
2022-10-16T17:01:49.141Z,31.53
2022-10-16T17:04:17.745Z,29.87
2022-10-16T17:06:44.469Z,30.63
2022-10-16T17:09:14.238Z,32.13
2022-10-16T17:11:45.436Z,31.83
2022-10-16T17:14:12.758Z,30.90
2022-10-16T17:16:40.367Z,31.73
2022-10-16T17:19:09.535Z,29.67
2022-10-16T17:21:36.963Z,30.07
2022-10-16T17:24:04.237Z,28.23
2022-10-16T17:26:32.041Z,25.83
2022-10-16T17:29:01.898Z,25.07
2022-10-16T17:31:34.449Z,24.13
2022-10-16T17:34:03.423Z,24.10
2022-10-16T17:36:33.042Z,25.10
2022-10-16T17:39:04.237Z,24.03
2022-10-16T17:41:31.475Z,23.57
2022-10-16T17:43:58.322Z,23.77
2022-10-16T17:46:25.417Z,21.67
2022-10-16T17:48:54.455Z,23.43
2022-10-16T17:51:26.864Z,22.47
2022-10-16T17:53:58.982Z,22.30
2022-10-16T17:56:26.849Z,22.60
2022-10-16T17:58:55.754Z,21.50
2022-10-16T18:01:25.582Z,21.40
2022-10-16T18:03:57.392Z,21.17
2022-10-16T18:06:24.959Z,19.90
2022-10-16T18:08:52.478Z,22.07
2022-10-16T18:11:19.961Z,21.37
2022-10-16T18:13:46.687Z,21.20
2022-10-16T18:16:14.917Z,20.60
2022-10-16T18:18:44.690Z,20.07
2022-10-16T18:21:13.017Z,20.10
2022-10-16T18:23:40.329Z,19.03
2022-10-16T18:26:07.682Z,19.43
2022-10-16T18:28:34.859Z,19.70
2022-10-16T18:31:06.925Z,19.27
2022-10-16T18:33:33.742Z,17.67
2022-10-16T18:36:05.569Z,19.07
2022-10-16T18:38:33.165Z,21.13
2022-10-16T18:41:05.555Z,19.50
2022-10-16T18:43:36.557Z,18.07
2022-10-16T18:46:08.544Z,18.20
2022-10-16T18:48:35.659Z,18.23
2022-10-16T18:51:09.085Z,18.90
2022-10-16T18:53:37.146Z,17.93
2022-10-16T18:56:05.267Z,18.70
2022-10-16T18:58:33.336Z,18.60
2022-10-16T19:01:04.721Z,16.90
2022-10-16T19:03:31.897Z,19.50
2022-10-16T19:06:03.673Z,17.93
2022-10-16T19:08:33.794Z,18.03
2022-10-16T19:11:09.466Z,19.03
2022-10-16T19:13:36.565Z,17.93
2022-10-16T19:16:18.979Z,17.67
2022-10-16T19:18:47.226Z,16.13
2022-10-16T19:21:14.811Z,17.87
2022-10-16T19:23:42.444Z,17.63
2022-10-16T19:26:16.986Z,17.47
2022-10-16T19:28:44.063Z,17.30
2022-10-16T19:31:17.024Z,16.77
2022-10-16T19:33:43.853Z,18.00
2022-10-16T19:36:13.324Z,16.80
2022-10-16T19:38:42.096Z,16.47
2022-10-16T19:41:16.863Z,15.70
2022-10-16T19:43:44.099Z,15.90
2022-10-16T19:46:16.017Z,16.50
2022-10-16T19:48:43.020Z,16.73
2022-10-16T19:51:15.675Z,17.10
2022-10-16T19:53:42.441Z,18.70
2022-10-16T19:56:19.290Z,17.17
2022-10-16T19:58:46.768Z,17.60
2022-10-16T20:01:14.606Z,18.90
2022-10-16T20:03:43.877Z,17.37
2022-10-16T20:06:11.906Z,17.17
2022-10-16T20:08:40.995Z,17.97
2022-10-16T20:11:12.305Z,17.00
2022-10-16T20:17:20.017Z,16.67
2022-10-16T20:19:46.666Z,16.47
2022-10-16T20:22:13.425Z,16.37
2022-10-16T20:24:40.769Z,17.60
2022-10-16T20:27:07.513Z,17.33
2022-10-16T20:29:34.215Z,17.17
2022-10-16T20:32:00.987Z,16.40
2022-10-16T20:34:27.798Z,16.93
2022-10-16T20:36:54.607Z,16.10
2022-10-16T20:39:21.535Z,16.73
2022-10-16T20:41:48.466Z,16.13
2022-10-16T20:44:15.170Z,16.13
2022-10-16T20:46:42.475Z,16.23
2022-10-16T20:49:11.554Z,16.10
2022-10-16T20:51:49.937Z,16.73
2022-10-16T20:54:16.830Z,16.07
2022-10-16T20:56:44.015Z,15.30
2022-10-16T20:59:11.769Z,14.97
2022-10-16T21:01:39.043Z,15.60
2022-10-16T21:04:08.559Z,16.50
2022-10-16T21:06:37.865Z,16.30
2022-10-16T21:09:06.628Z,15.60
2022-10-16T21:11:35.547Z,16.73
2022-10-16T21:14:05.649Z,15.50
2022-10-16T21:16:32.644Z,15.10
2022-10-16T21:18:59.304Z,15.70
2022-10-16T21:21:29.723Z,14.70
2022-10-16T21:23:57.888Z,16.70
2022-10-16T21:26:26.425Z,16.03
2022-10-16T21:29:13.986Z,15.73
2022-10-16T21:31:41.574Z,15.90
2022-10-16T21:34:08.489Z,16.07
2022-10-16T21:36:40.135Z,14.20
2022-10-16T21:39:15.203Z,16.27
2022-10-16T21:41:43.538Z,14.70
2022-10-16T21:44:11.333Z,14.53
2022-10-16T21:46:40.350Z,14.37
2022-10-16T21:49:10.133Z,15.00
2022-10-16T21:51:40.014Z,14.40
2022-10-16T21:54:09.773Z,15.33
2022-10-16T21:56:36.617Z,14.67
2022-10-16T21:59:04.125Z,14.70
2022-10-16T22:01:31.182Z,15.60
2022-10-16T22:03:58.551Z,15.57
2022-10-16T22:06:27.808Z,16.07
2022-10-16T22:08:57.555Z,15.33
2022-10-16T22:11:28.091Z,17.07
2022-10-16T22:13:56.883Z,15.40
2022-10-16T22:16:25.937Z,15.90
2022-10-16T22:18:54.408Z,16.17
2022-10-16T22:21:21.193Z,15.10
2022-10-16T22:23:48.181Z,14.33
2022-10-16T22:26:14.951Z,14.63
2022-10-16T22:28:42.334Z,15.33
2022-10-16T22:31:13.021Z,14.63
2022-10-16T22:33:40.162Z,15.40
2022-10-16T22:36:09.016Z,14.57
2022-10-16T22:38:37.222Z,15.17
2022-10-16T22:41:06.175Z,13.90
2022-10-16T22:43:36.278Z,15.10
2022-10-16T22:46:05.144Z,14.50
2022-10-16T22:48:31.975Z,16.27
2022-10-16T22:50:58.701Z,14.60
2022-10-16T22:53:25.421Z,15.00
2022-10-16T22:55:52.212Z,14.20
2022-10-16T22:58:19.125Z,14.27
2022-10-16T23:00:45.883Z,15.30
2022-10-16T23:03:12.821Z,15.70
2022-10-16T23:05:43.389Z,13.47
2022-10-16T23:08:11.831Z,14.63
2022-10-16T23:10:40.111Z,15.50
2022-10-16T23:13:06.800Z,14.97
2022-10-16T23:15:33.565Z,15.10
2022-10-16T23:18:00.304Z,14.07
2022-10-16T23:20:27.022Z,14.93
2022-10-16T23:22:53.801Z,14.03
2022-10-16T23:25:20.474Z,15.13
2022-10-16T23:27:47.137Z,13.40
2022-10-16T23:30:13.805Z,14.50
2022-10-16T23:32:41.446Z,14.30
2022-10-16T23:35:08.609Z,14.03
2022-10-16T23:37:35.257Z,14.30
2022-10-16T23:40:01.921Z,14.50
2022-10-16T23:42:29.018Z,14.37
2022-10-16T23:44:56.263Z,15.00
2022-10-16T23:47:23.121Z,14.03
2022-10-16T23:49:49.776Z,14.73
2022-10-16T23:52:16.433Z,13.87
2022-10-16T23:54:43.138Z,12.67
2022-10-16T23:57:09.783Z,14.60
2022-10-16T23:59:36.438Z,13.73
